• Join FlightAware (Why Join?)
  • Login
  • US Flag GB Flag 
23:03 EST


 

Airport Tracker/Info


-or-


 

Live Flight TrackerFlight Track Log ✈ CTL15 ✈ 18-Jul-2013 ✈ KMGY - KBKL

Flight Track Log - Related Links

Times and Time Zones

All times are in EDT time to prevent confusion due to time zone crossing. See the CTL15 flight status page for this flight to view local times or setup timezone preferences in your user account.

Time Position Orientation Groundspeed Altitude Reporting Facility
EDT Latitude Longitude Course Direction KTS MPH feet Rate Location/Type
19:40 39.6331 -84.1783 46° Northeast 103 119 2,800  Level Indianapolis Center
19:40 39.6528 -84.1517 46° Northeast 107 123 3,900 1,020 Climbing Indianapolis Center
19:42 39.6769 -84.1206 45° Northeast 107 123 5,000 840 Climbing Indianapolis Center
19:43 39.6983 -84.0947 43° Northeast 107 123 5,900 840 Climbing Indianapolis Center
19:44 39.7186 -84.0653 48° Northeast 107 123 6,800 840 Climbing Indianapolis Center
19:45 39.7406 -84.0364 45° Northeast 116 133 7,600 540 Climbing Indianapolis Center
19:46 39.7650 -84.0053 44° Northeast 122 140 8,000 180 Climbing Indianapolis Center
19:47 39.7989 -83.9622 44° Northeast 185 213 8,000 360 Level Indianapolis Center
19:48 39.8361 -83.9169 43° Northeast 159 183 8,900 480 Climbing Indianapolis Center
19:49 39.8567 -83.8906 45° Northeast 144 166 9,000  Climbing Indianapolis Center
19:50 39.8997 -83.8308 47° Northeast 170 196 8,900 -60 Descending Indianapolis Center
19:51 39.9325 -83.7889 44° Northeast 179 206 8,900  Level Indianapolis Center
19:52 39.9617 -83.7503 45° Northeast 175 201 8,900  Level Indianapolis Center
19:53 39.9956 -83.7069 44° Northeast 175 201 8,900  Level Indianapolis Center
19:54 40.0294 -83.6608 46° Northeast 177 204 8,900  Level Indianapolis Center
19:55 40.0661 -83.6122 45° Northeast 175 201 8,900  Level Indianapolis Center
19:56 40.1022 -83.5664 44° Northeast 179 206 8,900  Level Indianapolis Center
19:57 40.1342 -83.5197 48° Northeast 175 201 8,900  Level Indianapolis Center
19:58 40.1703 -83.4739 44° Northeast 178 205 8,900  Level Indianapolis Center
19:59 40.2042 -83.4275 46° Northeast 178 205 8,900  Level Indianapolis Center
20:00 40.2425 -83.3817 42° Northeast 178 205 8,900  Level Indianapolis Center
20:01 40.2783 -83.3356 44° Northeast 179 206 8,900  Level Indianapolis Center
20:02 40.3144 -83.2894 44° Northeast 175 201 8,900  Level Indianapolis Center
20:03 40.3506 -83.2433 44° Northeast 180 207 8,900  Level Indianapolis Center
20:04 40.3842 -83.1994 45° Northeast 177 204 8,900  Level Indianapolis Center
20:05 40.4353 -83.1317 45° Northeast 178 205 9,000  Climbing Indianapolis Center
20:06 40.4700 -83.0831 47° Northeast 180 207 8,900 -60 Descending Indianapolis Center
20:07 40.5056 -83.0339 46° Northeast 184 212 8,900  Level Indianapolis Center
20:08 40.5464 -82.9808 45° Northeast 184 212 8,900  Level Indianapolis Center
20:09 40.5836 -82.9336 44° Northeast 184 212 8,900  Level Indianapolis Center
20:10 40.6203 -82.8850 45° Northeast 184 212 8,900  Level Indianapolis Center
20:11 40.6564 -82.8378 45° Northeast 183 211 8,900  Level Indianapolis Center
20:12 40.6922 -82.7914 44° Northeast 180 207 8,900  Level Indianapolis Center
20:14 40.7275 -82.7439 46° Northeast 179 206 8,900  Level Indianapolis Center
20:15 40.7667 -82.6994 41° Northeast 182 209 8,900  Level Indianapolis Center
20:16 40.8028 -82.6531 44° Northeast 181 208 8,900  Level Indianapolis Center
20:17 40.8369 -82.6033 48° Northeast 181 208 9,000  Climbing Indianapolis Center
20:18 40.8744 -82.5569 43° Northeast 182 209 8,900 -120 Descending Indianapolis Center